Time;durP1;ratioP1;P1;durP2;ratioP2;P2;SDS_P1;SDS_P2;PMS_P1;PMS_P2;Temp;Humidity;BMP_temperature;BMP_pressure;BME280_temperature;BME280_humidity;BME280_pressure;Samples;Min_cycle;Max_cycle;Signal;HPM_P1;HPM_P2
2022/03/20 00:01:02;;;;;;;12.47;8.83;;;3.70;99.90;;;;;;5011785;28;20162;-82
2022/03/20 00:03:30;;;;;;;15.47;9.57;;;3.70;99.90;;;;;;5026992;28;20178;-81
2022/03/20 00:05:57;;;;;;;16.50;10.43;;;3.60;99.90;;;;;;5009858;28;20369;-83
2022/03/20 00:08:27;;;;;;;19.07;11.63;;;3.60;99.90;;;;;;5008456;28;20170;-83
2022/03/20 00:10:57;;;;;;;15.60;9.23;;;3.60;99.90;;;;;;5008015;28;20293;-81
2022/03/20 00:13:23;;;;;;;18.53;9.73;;;3.60;99.90;;;;;;5009462;28;20228;-82
2022/03/20 00:15:51;;;;;;;17.13;10.80;;;3.60;99.90;;;;;;5010264;28;20170;-82
2022/03/20 00:18:20;;;;;;;16.73;10.43;;;3.70;99.90;;;;;;5027452;28;20178;-82
2022/03/20 00:20:56;;;;;;;15.03;9.93;;;3.70;99.90;;;;;;5008773;28;20217;-82
2022/03/20 00:23:23;;;;;;;15.83;10.07;;;3.60;99.90;;;;;;5009111;28;20189;-81
2022/03/20 00:25:50;;;;;;;17.47;10.37;;;3.60;99.90;;;;;;5025718;28;20194;-82
2022/03/20 00:28:18;;;;;;;18.20;10.33;;;3.50;99.90;;;;;;5010851;28;20159;-82
2022/03/20 00:30:45;;;;;;;16.57;10.57;;;3.50;99.90;;;;;;5022576;28;20150;-82
2022/03/20 00:33:11;;;;;;;16.13;10.87;;;3.50;99.90;;;;;;5020386;28;20249;-82
2022/03/20 00:35:40;;;;;;;17.93;11.00;;;3.50;99.90;;;;;;5012459;28;20279;-81
2022/03/20 00:38:09;;;;;;;19.27;12.30;;;3.50;99.90;;;;;;5017302;28;20188;-81
2022/03/20 00:40:36;;;;;;;16.73;11.10;;;3.40;99.90;;;;;;5015206;28;20202;-82
2022/03/20 00:43:04;;;;;;;17.93;10.93;;;3.40;99.90;;;;;;5028277;28;20178;-81
2022/03/20 00:45:29;;;;;;;15.40;11.40;;;3.50;99.90;;;;;;5013973;28;20182;-81
2022/03/20 00:47:55;;;;;;;20.77;11.93;;;3.30;99.90;;;;;;5013828;28;20188;-82
2022/03/20 00:50:22;;;;;;;20.83;12.20;;;3.40;99.90;;;;;;5015099;28;20188;-82
2022/03/20 00:52:48;;;;;;;19.33;11.83;;;3.30;99.90;;;;;;5026855;28;20174;-82
2022/03/20 00:55:14;;;;;;;18.43;12.57;;;3.30;99.90;;;;;;5031683;28;20236;-81
2022/03/20 00:57:39;;;;;;;18.67;11.90;;;3.30;99.90;;;;;;5017455;28;20178;-82
2022/03/20 01:00:07;;;;;;;18.20;12.07;;;3.30;99.90;;;;;;5011348;28;20198;-82
2022/03/20 01:02:43;;;;;;;17.53;12.00;;;3.40;99.90;;;;;;5008037;28;20642;-83
2022/03/20 01:05:17;;;;;;;20.00;13.00;;;3.30;99.90;;;;;;5023511;28;20220;-82
2022/03/20 01:07:43;;;;;;;19.73;12.73;;;3.30;99.90;;;;;;5003341;28;20277;-82
2022/03/20 01:10:09;;;;;;;20.90;13.20;;;3.30;99.90;;;;;;5004309;28;20203;-82
2022/03/20 01:12:39;;;;;;;21.27;13.03;;;3.30;99.90;;;;;;5024026;28;20181;-83
2022/03/20 01:15:06;;;;;;;17.60;13.27;;;3.30;99.90;;;;;;5019252;28;20198;-83
2022/03/20 01:17:33;;;;;;;19.20;13.40;;;3.30;99.90;;;;;;5019592;28;20178;-82
2022/03/20 01:19:58;;;;;;;19.50;13.47;;;3.30;99.90;;;;;;5020111;28;20629;-83
2022/03/20 01:22:24;;;;;;;18.03;13.37;;;3.30;99.90;;;;;;5002161;28;20182;-82
2022/03/20 01:24:50;;;;;;;19.10;13.70;;;3.30;99.90;;;;;;5014618;28;20213;-83
2022/03/20 01:27:16;;;;;;;21.03;14.03;;;3.30;99.90;;;;;;5017904;28;20278;-83
2022/03/20 01:29:47;;;;;;;20.13;13.90;;;3.20;99.90;;;;;;5017221;28;20653;-81
2022/03/20 01:32:13;;;;;;;20.43;14.40;;;3.20;99.90;;;;;;5018664;28;20224;-83
2022/03/20 01:34:39;;;;;;;22.67;13.93;;;3.30;99.90;;;;;;4998009;28;20206;-82
2022/03/20 01:37:08;;;;;;;18.23;13.93;;;3.30;99.90;;;;;;5002526;28;20194;-82
2022/03/20 01:39:35;;;;;;;18.67;14.03;;;3.30;99.90;;;;;;5001578;28;20256;-82
2022/03/20 01:42:05;;;;;;;20.37;14.20;;;3.30;99.90;;;;;;4997521;28;20174;-82
2022/03/20 01:44:35;;;;;;;21.30;14.23;;;3.30;99.90;;;;;;5015065;28;20225;-80
2022/03/20 01:47:02;;;;;;;20.07;13.83;;;3.20;99.90;;;;;;5017973;28;20242;-79
2022/03/20 01:49:29;;;;;;;21.90;14.23;;;3.30;99.90;;;;;;5004264;28;20708;-79
2022/03/20 01:52:10;;;;;;;21.30;13.97;;;3.30;99.90;;;;;;5020912;28;20170;-79
2022/03/20 01:54:41;;;;;;;20.27;13.97;;;3.30;99.90;;;;;;5004516;28;20205;-79
2022/03/20 01:57:07;;;;;;;22.80;15.07;;;3.20;99.90;;;;;;5004725;28;20216;-80
2022/03/20 01:59:34;;;;;;;20.03;14.27;;;3.40;99.90;;;;;;5019984;28;20237;-79
2022/03/20 02:02:02;;;;;;;18.90;14.37;;;3.20;99.90;;;;;;4995929;28;20666;-79
2022/03/20 02:04:30;;;;;;;21.60;13.97;;;3.30;99.90;;;;;;5017800;28;20288;-79
2022/03/20 02:07:00;;;;;;;23.53;14.97;;;3.30;99.90;;;;;;5004107;28;20541;-80
2022/03/20 02:09:26;;;;;;;20.03;13.83;;;3.40;99.90;;;;;;5007943;28;20205;-79
2022/03/20 02:11:54;;;;;;;21.17;14.43;;;3.30;99.90;;;;;;5019981;28;20233;-79
2022/03/20 02:14:20;;;;;;;22.47;15.03;;;3.40;99.90;;;;;;5001233;28;20198;-80
2022/03/20 02:16:46;;;;;;;22.97;14.87;;;3.40;99.90;;;;;;5003296;28;20182;-79
2022/03/20 02:19:26;;;;;;;22.93;15.33;;;3.30;99.90;;;;;;5003163;28;20197;-80
2022/03/20 02:21:51;;;;;;;21.93;14.50;;;3.30;99.90;;;;;;5014324;28;20186;-80
2022/03/20 02:24:40;;;;;;;22.87;14.33;;;3.30;99.90;;;;;;5020488;28;20228;-80
2022/03/20 02:27:06;;;;;;;19.93;14.30;;;3.30;99.90;;;;;;5004089;28;20173;-79
2022/03/20 02:29:32;;;;;;;19.53;13.93;;;3.30;99.90;;;;;;5003054;28;20182;-79
2022/03/20 02:31:59;;;;;;;17.90;13.73;;;3.30;99.90;;;;;;5032628;28;20193;-79
2022/03/20 02:34:28;;;;;;;21.40;14.60;;;3.30;99.90;;;;;;5019934;28;20259;-79
2022/03/20 02:36:55;;;;;;;19.37;14.67;;;3.30;99.90;;;;;;5025536;28;20174;-80
2022/03/20 02:39:21;;;;;;;20.20;14.77;;;3.30;99.90;;;;;;5005167;28;20301;-80
2022/03/20 02:41:48;;;;;;;21.83;14.60;;;3.20;99.90;;;;;;5004445;28;20209;-80
2022/03/20 02:44:14;;;;;;;19.97;14.27;;;3.20;99.90;;;;;;5020438;28;20328;-80
2022/03/20 02:46:40;;;;;;;19.40;14.00;;;3.20;99.90;;;;;;5020323;28;20186;-79
2022/03/20 02:49:06;;;;;;;20.50;14.70;;;3.20;99.90;;;;;;5002367;28;20193;-78
2022/03/20 02:51:33;;;;;;;23.10;14.50;;;3.20;99.90;;;;;;5022642;28;20269;-79
2022/03/20 02:54:00;;;;;;;22.10;13.83;;;3.20;99.90;;;;;;5008264;28;20201;-79
2022/03/20 02:56:27;;;;;;;24.43;14.33;;;3.10;99.90;;;;;;5024219;28;20277;-80
2022/03/20 02:58:57;;;;;;;23.97;15.17;;;3.20;99.90;;;;;;5006944;28;20205;-79
2022/03/20 03:01:22;;;;;;;22.43;13.97;;;3.10;99.90;;;;;;5007342;28;20170;-79
2022/03/20 03:03:48;;;;;;;18.53;14.10;;;3.10;99.90;;;;;;5021477;28;20201;-80
2022/03/20 03:06:18;;;;;;;19.67;14.80;;;3.20;99.90;;;;;;5018972;28;20178;-79
2022/03/20 03:11:29;;;;;;;22.07;14.57;;;3.20;99.90;;;;;;5015792;28;20212;-80
2022/03/20 03:15:18;;;;;;;23.97;14.83;;;3.20;99.90;;;;;;5002432;28;20289;-80
2022/03/20 03:16:46;;;;;;;18.53;14.13;;;3.10;99.90;;;;;;5013684;28;20181;-80
2022/03/20 03:19:12;;;;;;;21.13;14.53;;;3.10;99.90;;;;;;5018194;28;20224;-79
2022/03/20 03:21:41;;;;;;;18.77;14.07;;;3.10;99.90;;;;;;5000752;28;20166;-80
2022/03/20 03:24:06;;;;;;;23.80;15.57;;;3.00;99.90;;;;;;5003124;28;20205;-80
2022/03/20 03:26:32;;;;;;;19.60;13.90;;;3.00;99.90;;;;;;4999201;28;20193;-79
2022/03/20 03:28:59;;;;;;;23.57;14.67;;;3.00;99.90;;;;;;5001225;28;20216;-79
2022/03/20 03:31:25;;;;;;;24.30;15.30;;;3.00;99.90;;;;;;5003906;28;20213;-79
2022/03/20 03:36:36;;;;;;;24.63;15.70;;;3.00;99.90;;;;;;5019425;28;20625;-78
2022/03/20 03:39:01;;;;;;;20.27;14.43;;;3.00;99.90;;;;;;5002305;28;20225;-79
2022/03/20 03:41:27;;;;;;;20.13;14.27;;;2.90;99.90;;;;;;5019465;28;20645;-79
2022/03/20 03:43:53;;;;;;;21.43;15.27;;;3.00;99.90;;;;;;5018195;28;20190;-79
2022/03/20 03:46:31;;;;;;;19.70;14.37;;;2.90;99.90;;;;;;5003025;28;20170;-80
2022/03/20 03:48:57;;;;;;;24.53;15.60;;;2.90;99.90;;;;;;5003071;28;20177;-79
2022/03/20 03:51:22;;;;;;;22.80;15.53;;;2.80;99.90;;;;;;5019593;28;20240;-79
2022/03/20 03:53:48;;;;;;;21.80;15.03;;;2.90;99.90;;;;;;5019425;28;20212;-79
2022/03/20 03:56:14;;;;;;;21.20;16.03;;;2.90;99.90;;;;;;5002698;28;20190;-80
2022/03/20 03:58:40;;;;;;;20.07;15.33;;;2.90;99.90;;;;;;5003063;28;20178;-80
2022/03/20 04:01:09;;;;;;;20.80;14.27;;;2.80;99.90;;;;;;5021553;28;20170;-79
2022/03/20 04:03:34;;;;;;;23.67;15.00;;;2.90;99.90;;;;;;5007460;28;20203;-79
2022/03/20 04:06:04;;;;;;;22.33;15.60;;;2.80;99.90;;;;;;5028115;28;20174;-79
2022/03/20 04:08:32;;;;;;;21.93;15.37;;;2.90;99.90;;;;;;5026782;28;20178;-79
2022/03/20 04:10:58;;;;;;;19.87;15.10;;;2.80;99.90;;;;;;5010766;28;20174;-79
2022/03/20 04:13:23;;;;;;;22.10;15.40;;;2.80;99.90;;;;;;5028483;28;20259;-80
2022/03/20 04:15:49;;;;;;;21.73;15.97;;;2.80;99.90;;;;;;5011817;28;20174;-79
2022/03/20 04:18:15;;;;;;;21.90;15.00;;;2.80;99.90;;;;;;5027105;28;20181;-78
2022/03/20 04:20:43;;;;;;;23.80;16.10;;;2.80;99.90;;;;;;5028585;28;20212;-79
2022/03/20 04:25:54;;;;;;;21.83;14.37;;;2.80;99.90;;;;;;5022006;28;20194;-79
2022/03/20 04:28:21;;;;;;;22.63;16.13;;;2.80;99.90;;;;;;5028453;28;20174;-79
2022/03/20 04:30:48;;;;;;;22.23;15.90;;;2.70;99.90;;;;;;5011443;28;20178;-79
2022/03/20 04:33:14;;;;;;;21.83;15.57;;;2.70;99.90;;;;;;5011925;28;20178;-79
2022/03/20 04:35:40;;;;;;;22.40;15.80;;;2.70;99.90;;;;;;5013571;28;20202;-78
2022/03/20 04:38:05;;;;;;;24.23;16.37;;;2.70;99.90;;;;;;5028051;28;20224;-79
2022/03/20 04:40:31;;;;;;;23.50;15.63;;;2.70;99.90;;;;;;5012239;28;20202;-78
2022/03/20 04:42:57;;;;;;;25.20;15.70;;;2.70;99.90;;;;;;5008159;28;20202;-78
2022/03/20 04:45:23;;;;;;;23.07;15.83;;;2.70;99.90;;;;;;5009842;28;20194;-79
2022/03/20 04:58:51;;;;;;;23.70;16.17;;;2.70;99.90;;;;;;5019566;28;20186;-79
2022/03/20 05:01:16;;;;;;;22.47;15.43;;;2.60;99.90;;;;;;5020751;28;20640;-80
2022/03/20 05:03:42;;;;;;;21.27;15.20;;;2.60;99.90;;;;;;5020538;28;20205;-80
2022/03/20 05:06:08;;;;;;;21.20;15.53;;;2.60;99.90;;;;;;5021050;28;20182;-78
2022/03/20 05:08:37;;;;;;;22.20;15.83;;;2.50;99.90;;;;;;5020888;28;20269;-80
2022/03/20 05:13:48;;;;;;;25.87;16.07;;;2.60;99.90;;;;;;5039486;28;20185;-79
2022/03/20 05:16:15;;;;;;;21.27;15.13;;;2.50;99.90;;;;;;5042298;28;20182;-79
2022/03/20 05:18:41;;;;;;;27.70;15.30;;;2.50;99.90;;;;;;5041351;28;20174;-78
2022/03/20 05:21:09;;;;;;;24.93;15.70;;;2.50;99.90;;;;;;5036623;28;20254;-78
2022/03/20 05:23:35;;;;;;;23.90;15.87;;;2.50;99.90;;;;;;5040305;28;20182;-79
2022/03/20 05:26:01;;;;;;;23.23;16.43;;;2.50;99.90;;;;;;5036927;28;20284;-79
2022/03/20 05:28:27;;;;;;;23.73;16.53;;;2.40;99.90;;;;;;5015900;28;20181;-79
2022/03/20 05:30:53;;;;;;;24.23;15.93;;;2.40;99.90;;;;;;5027640;28;20174;-79
2022/03/20 05:33:19;;;;;;;21.47;14.70;;;2.40;99.90;;;;;;5008007;28;20178;-80
2022/03/20 05:35:47;;;;;;;21.47;15.30;;;2.40;99.90;;;;;;5024213;28;20236;-79
2022/03/20 05:38:13;;;;;;;24.17;15.57;;;2.40;99.90;;;;;;5021815;28;20178;-80
2022/03/20 05:40:41;;;;;;;22.93;14.93;;;2.40;99.90;;;;;;5005068;28;20197;-79
2022/03/20 05:43:09;;;;;;;24.63;15.87;;;2.40;99.90;;;;;;5006082;28;20174;-79
2022/03/20 05:45:37;;;;;;;22.60;15.77;;;2.50;99.90;;;;;;5021623;28;20194;-79
2022/03/20 05:48:03;;;;;;;20.77;14.80;;;2.50;99.90;;;;;;5021027;28;20174;-79
2022/03/20 05:50:29;;;;;;;23.63;15.87;;;2.40;99.90;;;;;;5005528;28;20178;-80
2022/03/20 05:52:55;;;;;;;22.43;15.60;;;2.40;99.90;;;;;;5019201;28;20177;-80
2022/03/20 05:58:01;;;;;;;23.37;16.17;;;2.40;99.90;;;;;;5021260;28;20291;-79
2022/03/20 05:58:11;;;;;;;21.63;15.30;;;2.40;99.90;;;;;;5021119;28;20177;-81
2022/03/20 06:00:41;;;;;;;22.07;14.97;;;2.40;99.90;;;;;;5001653;28;20211;-79
2022/03/20 06:03:10;;;;;;;24.27;16.07;;;2.50;99.90;;;;;;5003028;28;20189;-79
2022/03/20 06:05:37;;;;;;;22.00;15.30;;;2.40;99.90;;;;;;5005452;28;20205;-80
2022/03/20 06:08:02;;;;;;;24.20;15.43;;;2.40;99.90;;;;;;5021142;28;20219;-80
2022/03/20 06:10:28;;;;;;;23.37;15.43;;;2.50;99.90;;;;;;5020888;28;20182;-79
2022/03/20 06:12:54;;;;;;;25.07;14.90;;;2.50;99.90;;;;;;5004995;28;20193;-79
2022/03/20 06:15:23;;;;;;;22.13;15.23;;;2.50;99.90;;;;;;5021022;28;20197;-80
2022/03/20 06:17:48;;;;;;;21.50;14.80;;;2.50;99.90;;;;;;5021235;28;20178;-79
2022/03/20 06:20:16;;;;;;;23.87;15.60;;;2.50;99.90;;;;;;5021188;28;20200;-79
2022/03/20 06:22:44;;;;;;;23.77;16.30;;;2.50;99.90;;;;;;5004318;28;20178;-80
2022/03/20 06:25:11;;;;;;;24.67;15.27;;;2.60;99.90;;;;;;5015942;28;20244;-79
2022/03/20 06:27:52;;;;;;;22.67;15.30;;;2.70;99.90;;;;;;5020469;28;20186;-79
2022/03/20 06:30:19;;;;;;;22.03;14.80;;;2.70;99.90;;;;;;4976372;28;20606;-80
2022/03/20 06:32:46;;;;;;;18.60;14.10;;;2.70;99.90;;;;;;5003612;28;20173;-80
2022/03/20 06:35:14;;;;;;;22.50;15.27;;;2.70;99.90;;;;;;5004175;28;20209;-80
2022/03/20 06:37:44;;;;;;;23.10;15.03;;;2.80;99.90;;;;;;5004346;28;20519;-79
2022/03/20 06:40:11;;;;;;;24.20;14.43;;;2.90;99.90;;;;;;5003338;28;20202;-79
2022/03/20 06:42:37;;;;;;;22.60;14.73;;;3.00;99.90;;;;;;5020651;28;20274;-79
2022/03/20 06:45:07;;;;;;;20.83;15.27;;;3.00;99.90;;;;;;5003614;28;20193;-78
2022/03/20 06:47:32;;;;;;;21.63;14.40;;;3.10;99.90;;;;;;5000806;28;20183;-78
2022/03/20 06:49:59;;;;;;;19.73;13.97;;;3.10;99.90;;;;;;5005429;28;20246;-79
2022/03/20 06:52:28;;;;;;;21.13;14.27;;;3.20;99.90;;;;;;5019506;28;20233;-78
2022/03/20 06:54:59;;;;;;;20.20;14.17;;;3.30;99.90;;;;;;5002812;28;20209;-79
2022/03/20 06:57:26;;;;;;;20.60;14.23;;;3.30;99.90;;;;;;5003792;28;20324;-79
2022/03/20 06:59:53;;;;;;;19.30;14.00;;;3.40;99.90;;;;;;5002390;28;20201;-79
2022/03/20 07:02:19;;;;;;;20.83;13.70;;;3.60;99.90;;;;;;5018894;28;20177;-79
2022/03/20 07:04:48;;;;;;;22.90;13.20;;;3.90;99.90;;;;;;5002495;28;20527;-78
2022/03/20 07:07:15;;;;;;;18.67;12.93;;;4.20;98.80;;;;;;5002638;28;20541;-78
2022/03/20 07:09:41;;;;;;;20.00;13.73;;;4.40;97.90;;;;;;5002093;28;20210;-78
2022/03/20 07:12:08;;;;;;;18.63;13.23;;;4.70;97.00;;;;;;5004576;28;20189;-79
2022/03/20 07:14:34;;;;;;;18.00;13.37;;;4.90;95.70;;;;;;5006833;28;20205;-78
2022/03/20 07:17:02;;;;;;;17.13;12.73;;;5.20;95.20;;;;;;5022613;28;20637;-79
2022/03/20 07:19:28;;;;;;;21.30;13.90;;;5.20;94.80;;;;;;5019417;28;20206;-78
2022/03/20 07:21:54;;;;;;;19.40;13.60;;;5.00;94.20;;;;;;5017894;28;20223;-78
2022/03/20 07:24:19;;;;;;;18.73;13.87;;;4.70;93.90;;;;;;4998960;28;20217;-79
2022/03/20 07:29:30;;;;;;;19.97;12.23;;;4.60;93.40;;;;;;5018640;28;20170;-79
2022/03/20 07:31:57;;;;;;;20.23;13.10;;;4.60;93.40;;;;;;5018733;28;20177;-79
2022/03/20 07:34:23;;;;;;;19.20;12.83;;;4.60;93.10;;;;;;5019753;28;20229;-79
2022/03/20 07:36:50;;;;;;;17.97;12.80;;;4.70;93.30;;;;;;5004548;28;20178;-79
2022/03/20 07:39:17;;;;;;;17.27;12.27;;;4.70;91.60;;;;;;4998550;28;20286;-77
2022/03/20 07:41:43;;;;;;;17.67;12.10;;;4.80;91.70;;;;;;5000730;28;20174;-78
2022/03/20 07:44:09;;;;;;;19.50;12.30;;;4.80;91.20;;;;;;5017926;28;20252;-78
2022/03/20 07:46:36;;;;;;;19.50;12.97;;;4.80;90.20;;;;;;5017827;28;20166;-78
2022/03/20 07:49:03;;;;;;;18.87;12.87;;;4.90;89.30;;;;;;5016810;28;20641;-79
2022/03/20 07:51:32;;;;;;;17.13;12.13;;;4.90;89.50;;;;;;5000977;28;20178;-80
2022/03/20 07:53:58;;;;;;;20.07;13.17;;;5.10;88.70;;;;;;5018690;28;20757;-80
2022/03/20 07:56:24;;;;;;;15.73;12.03;;;5.10;88.10;;;;;;5001082;28;20201;-79
2022/03/20 07:58:51;;;;;;;17.80;12.60;;;5.10;87.10;;;;;;5016993;28;20174;-79
2022/03/20 08:01:16;;;;;;;17.30;11.77;;;5.20;85.80;;;;;;5000976;28;20178;-79
2022/03/20 08:03:42;;;;;;;18.70;13.40;;;5.30;84.30;;;;;;5018603;28;20208;-78
2022/03/20 08:06:09;;;;;;;22.10;12.97;;;5.30;83.70;;;;;;5003961;28;20194;-79
2022/03/20 08:08:39;;;;;;;17.40;12.73;;;5.40;83.00;;;;;;5020653;28;20560;-78
2022/03/20 08:11:05;;;;;;;17.97;12.73;;;5.40;82.80;;;;;;5005224;28;20953;-79
2022/03/20 08:13:31;;;;;;;18.43;12.90;;;5.50;81.30;;;;;;5020717;28;20182;-78
2022/03/20 08:15:58;;;;;;;18.37;13.50;;;5.60;79.00;;;;;;5018268;28;20178;-79
2022/03/20 08:18:23;;;;;;;16.67;12.37;;;5.70;77.80;;;;;;5001627;28;20189;-79
2022/03/20 08:20:52;;;;;;;17.60;12.33;;;5.70;78.00;;;;;;5018686;28;20199;-79
2022/03/20 08:23:17;;;;;;;17.80;12.60;;;5.80;76.50;;;;;;5001894;28;20175;-79
2022/03/20 08:25:47;;;;;;;17.00;12.87;;;5.80;75.30;;;;;;5001311;28;20214;-79
2022/03/20 08:28:12;;;;;;;18.97;13.07;;;5.90;74.60;;;;;;5002464;28;20176;-78
2022/03/20 08:30:40;;;;;;;18.73;12.53;;;6.00;73.10;;;;;;5000853;28;20229;-79
2022/03/20 08:33:06;;;;;;;15.83;12.93;;;6.00;73.00;;;;;;5015664;28;20183;-79
2022/03/20 08:35:32;;;;;;;19.07;12.80;;;6.20;72.60;;;;;;5001085;28;20209;-79
2022/03/20 08:38:06;;;;;;;18.70;12.90;;;6.20;72.10;;;;;;5017736;28;20179;-78
2022/03/20 08:40:34;;;;;;;20.47;13.00;;;6.20;71.30;;;;;;5001123;28;20251;-79
2022/03/20 08:43:04;;;;;;;18.63;12.97;;;6.20;69.80;;;;;;5001621;28;20158;-79
2022/03/20 08:45:33;;;;;;;19.80;14.33;;;6.30;69.80;;;;;;5001945;28;20221;-80
2022/03/20 08:48:00;;;;;;;18.00;13.00;;;6.30;69.30;;;;;;5021245;28;20669;-79
2022/03/20 08:50:26;;;;;;;20.63;13.97;;;6.40;69.20;;;;;;5007403;28;20190;-79
2022/03/20 08:52:53;;;;;;;18.30;12.97;;;6.50;69.90;;;;;;5023006;28;20177;-78
2022/03/20 08:55:19;;;;;;;21.47;13.23;;;6.50;68.10;;;;;;5025091;28;20193;-79
2022/03/20 08:57:47;;;;;;;20.70;14.00;;;6.50;68.60;;;;;;5023008;28;20192;-79
2022/03/20 09:00:18;;;;;;;18.37;12.73;;;6.60;67.30;;;;;;5008714;28;20203;-80
2022/03/20 09:02:46;;;;;;;20.17;13.40;;;6.70;67.10;;;;;;5000824;28;20675;-78
2022/03/20 09:05:13;;;;;;;16.67;12.63;;;6.80;67.00;;;;;;5017750;28;20186;-77
2022/03/20 09:07:43;;;;;;;18.90;13.43;;;6.90;66.80;;;;;;5004594;28;20177;-79
2022/03/20 09:10:10;;;;;;;21.53;13.93;;;7.00;67.00;;;;;;5014229;28;20211;-78
2022/03/20 09:12:37;;;;;;;17.87;13.20;;;7.10;65.50;;;;;;5003167;28;20529;-81
2022/03/20 09:15:12;;;;;;;20.10;13.60;;;7.10;65.50;;;;;;5009594;28;20549;-80
2022/03/20 09:20:27;;;;;;;20.73;14.63;;;7.20;66.80;;;;;;5024028;28;20256;-81
2022/03/20 09:22:53;;;;;;;20.37;13.97;;;7.20;65.00;;;;;;5026505;28;20174;-81
2022/03/20 09:25:19;;;;;;;21.17;14.10;;;7.30;65.20;;;;;;5026099;28;20712;-80
2022/03/20 09:27:48;;;;;;;21.90;14.77;;;7.30;65.20;;;;;;5004546;28;20230;-83
2022/03/20 09:30:17;;;;;;;21.83;16.30;;;7.40;65.00;;;;;;5021366;28;20433;-80
2022/03/20 09:32:49;;;;;;;21.10;15.27;;;7.60;64.70;;;;;;5016536;28;20687;-77
2022/03/20 09:35:16;;;;;;;20.70;14.83;;;7.70;64.50;;;;;;4999901;28;20541;-78
2022/03/20 09:37:41;;;;;;;20.23;14.03;;;7.80;64.60;;;;;;5007878;28;20184;-79
2022/03/20 09:40:09;;;;;;;20.63;14.53;;;8.00;64.60;;;;;;5012656;28;20233;-79
2022/03/20 09:42:36;;;;;;;22.63;15.73;;;8.10;64.40;;;;;;5003867;28;20174;-78
2022/03/20 09:45:07;;;;;;;21.27;14.53;;;8.20;63.50;;;;;;5001045;28;20285;-77
2022/03/20 09:47:40;;;;;;;21.20;15.10;;;8.30;63.00;;;;;;5005622;28;20202;-78
2022/03/20 09:50:07;;;;;;;25.40;15.53;;;8.40;63.10;;;;;;5006422;28;21364;-78
2022/03/20 09:52:34;;;;;;;19.50;14.97;;;8.40;62.40;;;;;;5000646;28;20264;-77
2022/03/20 09:55:00;;;;;;;21.33;15.17;;;8.50;62.60;;;;;;5002205;28;20194;-77
2022/03/20 09:57:30;;;;;;;20.23;15.60;;;8.70;63.10;;;;;;5021476;28;20182;-78
2022/03/20 09:59:58;;;;;;;25.47;15.63;;;8.90;62.10;;;;;;5022690;28;20202;-77
2022/03/20 10:02:28;;;;;;;20.87;15.33;;;9.00;62.10;;;;;;5020814;28;20170;-77
2022/03/20 10:05:04;;;;;;;23.37;15.50;;;9.20;61.70;;;;;;5003549;28;20194;-77
2022/03/20 10:07:33;;;;;;;22.33;14.97;;;9.40;61.50;;;;;;5006539;28;20188;-78
2022/03/20 10:10:14;;;;;;;21.97;15.87;;;9.60;59.20;;;;;;5023228;28;20194;-78
2022/03/20 10:12:47;;;;;;;24.70;16.70;;;9.70;58.50;;;;;;5018553;28;20186;-77
2022/03/20 10:15:36;;;;;;;22.90;15.43;;;9.80;58.10;;;;;;5008068;28;20625;-77
2022/03/20 10:18:18;;;;;;;21.70;16.33;;;10.00;57.10;;;;;;4999407;28;20178;-78
2022/03/20 10:20:52;;;;;;;23.03;16.17;;;10.30;56.50;;;;;;5006127;28;20230;-78
2022/03/20 10:23:36;;;;;;;22.40;15.23;;;10.30;55.50;;;;;;5019353;28;20675;-77
2022/03/20 10:26:15;;;;;;;24.40;16.40;;;10.30;54.90;;;;;;5026530;28;20188;-78
2022/03/20 10:28:43;;;;;;;22.77;16.17;;;10.40;54.60;;;;;;4999935;28;20168;-78
2022/03/20 10:31:20;;;;;;;20.33;15.63;;;10.50;54.90;;;;;;5024697;28;20182;-78
2022/03/20 10:34:03;;;;;;;22.30;15.77;;;10.80;53.80;;;;;;5009274;28;20217;-78
2022/03/20 10:36:29;;;;;;;22.13;15.80;;;10.90;52.70;;;;;;5005826;28;20189;-78
2022/03/20 10:38:56;;;;;;;21.90;15.13;;;11.20;51.80;;;;;;5005151;28;20185;-78
2022/03/20 10:41:25;;;;;;;19.17;15.83;;;11.70;51.30;;;;;;5025791;28;20239;-77
2022/03/20 10:43:52;;;;;;;21.70;16.10;;;12.10;49.60;;;;;;5010217;28;20200;-78
2022/03/20 10:46:20;;;;;;;20.20;15.83;;;12.10;48.40;;;;;;5024917;28;20182;-79
2022/03/20 10:48:49;;;;;;;20.93;15.77;;;11.90;48.10;;;;;;4999964;28;20637;-78
2022/03/20 10:51:38;;;;;;;22.30;14.83;;;11.80;48.10;;;;;;5012946;28;20181;-78
2022/03/20 10:54:26;;;;;;;;;;;;;;;;;;;;;
2022/03/20 10:57:17;;;;;;;22.33;16.07;;;12.10;47.80;;;;;;5016049;28;20191;-80
2022/03/20 10:59:55;;;;;;;21.00;15.43;;;12.20;47.30;;;;;;5017252;28;20759;-78
2022/03/20 11:02:41;;;;;;;20.33;15.53;;;12.40;46.50;;;;;;5019586;28;20525;-78
2022/03/20 11:05:12;;;;;;;19.07;15.53;;;12.60;46.50;;;;;;5010188;28;20240;-79
2022/03/20 11:07:46;;;;;;;20.77;16.00;;;13.20;45.90;;;;;;4999432;28;20166;-78
2022/03/20 11:10:19;;;;;;;20.97;15.70;;;14.00;44.40;;;;;;4983292;28;20187;-80
2022/03/20 11:12:53;;;;;;;20.40;15.23;;;14.60;43.10;;;;;;5000202;28;20186;-78
2022/03/20 11:15:22;;;;;;;23.03;16.17;;;15.20;41.90;;;;;;4997117;28;20218;-77
2022/03/20 11:17:55;;;;;;;20.43;15.10;;;15.10;41.50;;;;;;5013979;28;20162;-76
2022/03/20 11:20:29;;;;;;;22.17;15.93;;;15.60;41.50;;;;;;5008030;28;20282;-81
2022/03/20 11:22:59;;;;;;;22.87;15.93;;;15.70;40.40;;;;;;5007718;28;20552;-81
2022/03/20 11:25:26;;;;;;;20.37;15.87;;;14.80;40.70;;;;;;5009219;28;20279;-82
2022/03/20 11:27:55;;;;;;;21.80;15.93;;;14.80;41.30;;;;;;5026101;28;20170;-81
2022/03/20 11:30:32;;;;;;;19.27;15.03;;;14.70;40.80;;;;;;5024612;28;20216;-81
2022/03/20 11:33:02;;;;;;;17.07;14.97;;;14.30;40.90;;;;;;5020322;28;20229;-81
2022/03/20 11:35:33;;;;;;;22.67;16.27;;;13.40;42.00;;;;;;5022313;28;20206;-81
2022/03/20 11:38:35;;;;;;;22.33;16.47;;;13.20;43.30;;;;;;5027745;28;20182;-85
2022/03/20 11:41:27;;;;;;;22.33;15.63;;;13.60;41.70;;;;;;4974290;28;20221;-83
2022/03/20 11:44:20;;;;;;;23.97;15.50;;;13.40;41.40;;;;;;5011604;28;20587;-81
2022/03/20 11:47:06;;;;;;;18.97;15.30;;;13.70;41.50;;;;;;5007375;28;20210;-80
2022/03/20 11:49:32;;;;;;;20.07;15.43;;;13.90;41.00;;;;;;4998731;28;20186;-80
2022/03/20 11:52:20;;;;;;;19.63;15.57;;;13.90;41.20;;;;;;5019139;28;20184;-79
2022/03/20 11:54:47;;;;;;;20.47;16.00;;;13.90;41.40;;;;;;4997122;28;20198;-79
2022/03/20 11:57:29;;;;;;;19.47;15.03;;;13.80;41.00;;;;;;5010609;28;20170;-81
2022/03/20 12:00:18;;;;;;;22.07;16.70;;;14.10;41.00;;;;;;5019452;28;20695;-78
2022/03/20 12:02:59;;;;;;;20.77;15.57;;;13.70;41.60;;;;;;5022186;28;20182;-79
2022/03/20 12:06:04;;;;;;;20.90;15.67;;;13.50;41.10;;;;;;4995859;28;20201;-80
2022/03/20 12:09:15;;;;;;;23.57;15.47;;;13.20;41.50;;;;;;5001001;28;20676;-77
2022/03/20 12:12:31;;;;;;;20.53;15.80;;;13.10;42.80;;;;;;4999776;28;20190;-81
2022/03/20 12:15:11;;;;;;;22.93;15.87;;;13.30;42.50;;;;;;5019111;28;20306;-79
2022/03/20 12:18:03;;;;;;;21.00;14.37;;;13.10;42.20;;;;;;5023732;28;20169;-81
2022/03/20 12:20:48;;;;;;;22.50;16.23;;;12.90;43.50;;;;;;4994229;28;20212;-78
2022/03/20 12:23:36;;;;;;;23.93;16.13;;;12.80;42.70;;;;;;4997425;28;20178;-82
2022/03/20 12:26:34;;;;;;;21.97;15.73;;;12.60;42.20;;;;;;4995284;28;20183;-78
2022/03/20 12:29:39;;;;;;;19.20;14.63;;;12.30;43.20;;;;;;4989166;28;20170;-81
2022/03/20 12:32:13;;;;;;;23.43;14.57;;;12.30;42.30;;;;;;4999910;28;20247;-79
2022/03/20 12:34:58;;;;;;;25.43;15.93;;;12.10;42.10;;;;;;4998020;28;20297;-79
2022/03/20 12:37:31;;;;;;;21.00;15.50;;;11.90;42.30;;;;;;4992294;28;20170;-80
2022/03/20 12:40:02;;;;;;;23.83;15.20;;;11.90;42.30;;;;;;5013193;28;20255;-79
2022/03/20 12:42:31;;;;;;;28.53;15.37;;;11.90;42.20;;;;;;4993521;28;20198;-80
2022/03/20 12:45:16;;;;;;;24.90;15.60;;;11.90;41.70;;;;;;5012690;28;20216;-78
2022/03/20 12:47:58;;;;;;;19.97;14.53;;;11.90;42.10;;;;;;5008105;28;20182;-78
2022/03/20 12:50:28;;;;;;;18.97;13.97;;;11.80;42.00;;;;;;5000575;28;20228;-79
2022/03/20 12:53:04;;;;;;;25.20;15.03;;;11.80;41.80;;;;;;5011730;28;20184;-79
2022/03/20 12:55:30;;;;;;;25.30;14.97;;;11.80;41.80;;;;;;4999897;28;20201;-78
2022/03/20 12:58:07;;;;;;;24.00;15.67;;;11.70;42.00;;;;;;5015555;28;20350;-80
2022/03/20 13:00:40;;;;;;;23.63;15.17;;;11.80;42.20;;;;;;4992538;28;20209;-78
2022/03/20 13:03:10;;;;;;;22.77;14.80;;;11.90;42.40;;;;;;5015097;28;20166;-79
2022/03/20 13:06:01;;;;;;;26.30;14.77;;;11.90;41.30;;;;;;5017385;28;20200;-79
2022/03/20 13:08:33;;;;;;;30.83;14.57;;;11.90;40.70;;;;;;4987957;28;20214;-79
2022/03/20 13:11:53;;;;;;;20.27;14.20;;;11.90;41.40;;;;;;4997361;28;20182;-79
2022/03/20 13:14:05;;;;;;;21.33;14.53;;;12.00;41.10;;;;;;5001139;28;20220;-78
2022/03/20 13:16:33;;;;;;;21.23;14.60;;;12.00;41.30;;;;;;4989926;28;20178;-78
2022/03/20 13:19:05;;;;;;;21.20;14.27;;;12.00;41.30;;;;;;5014048;28;20182;-79